createdAt,value
2022-10-22T00:01:59.872Z,26.06
2022-10-22T00:04:48.701Z,26.03
2022-10-22T00:07:37.400Z,26.05
2022-10-22T00:10:27.295Z,26.06
2022-10-22T00:13:16.043Z,26.06
2022-10-22T00:16:04.462Z,26.03
2022-10-22T00:18:53.173Z,26.03
2022-10-22T00:21:41.605Z,26.04
2022-10-22T00:24:31.613Z,26.04
2022-10-22T00:27:21.478Z,26.03
2022-10-22T00:30:10.728Z,26.02
2022-10-22T00:32:59.175Z,26.00
2022-10-22T00:35:48.780Z,26.01
2022-10-22T00:38:39.674Z,26.02
2022-10-22T00:41:30.771Z,26.01
2022-10-22T00:44:56.697Z,25.99
2022-10-22T00:47:51.620Z,26.00
2022-10-22T00:50:42.910Z,26.02
2022-10-22T00:53:33.929Z,26.00
2022-10-22T00:56:22.358Z,26.01
2022-10-22T00:59:12.284Z,25.99
2022-10-22T01:02:00.840Z,25.98
2022-10-22T01:04:50.625Z,25.97
2022-10-22T01:07:43.598Z,25.96
2022-10-22T01:10:47.601Z,25.95
2022-10-22T01:13:43.462Z,25.97
2022-10-22T01:16:37.100Z,25.96
2022-10-22T01:19:35.380Z,25.96
2022-10-22T01:22:30.391Z,25.96
2022-10-22T01:25:23.026Z,25.94
2022-10-22T01:28:19.427Z,25.94
2022-10-22T01:31:10.666Z,25.95
2022-10-22T01:34:01.033Z,25.94
2022-10-22T01:36:49.850Z,25.93
2022-10-22T01:39:38.533Z,25.92
2022-10-22T01:42:27.173Z,25.95
2022-10-22T01:45:16.560Z,25.97
2022-10-22T01:48:17.223Z,25.97
2022-10-22T01:51:26.276Z,25.95
2022-10-22T01:54:23.488Z,25.93
2022-10-22T01:57:18.549Z,25.94
2022-10-22T02:00:09.102Z,25.96
2022-10-22T02:03:01.745Z,25.95
2022-10-22T02:05:53.610Z,25.94
2022-10-22T02:08:42.781Z,25.94
2022-10-22T02:11:31.520Z,25.93
2022-10-22T02:14:21.038Z,25.94
2022-10-22T02:17:10.659Z,25.96
2022-10-22T02:20:00.927Z,25.93
2022-10-22T02:22:51.209Z,25.97
2022-10-22T02:25:42.728Z,25.97
2022-10-22T02:28:36.017Z,25.96
2022-10-22T02:31:26.261Z,25.96
2022-10-22T02:34:17.455Z,25.95
2022-10-22T02:37:06.330Z,25.99
2022-10-22T02:39:57.262Z,26.00
2022-10-22T02:42:47.984Z,25.99
2022-10-22T02:45:37.019Z,25.99
2022-10-22T02:48:25.379Z,25.98
2022-10-22T02:51:13.785Z,25.95
2022-10-22T02:54:02.259Z,25.96
2022-10-22T02:56:52.052Z,25.95
2022-10-22T02:59:40.460Z,25.97
2022-10-22T03:02:28.910Z,25.95
2022-10-22T03:05:17.634Z,25.92
2022-10-22T03:08:06.457Z,25.93
2022-10-22T03:10:54.893Z,25.93
2022-10-22T03:13:44.647Z,25.93
2022-10-22T03:16:33.156Z,25.92
2022-10-22T03:19:21.594Z,25.92
2022-10-22T03:22:13.400Z,25.94
2022-10-22T03:25:07.777Z,25.95
2022-10-22T03:27:57.083Z,25.93
2022-10-22T03:30:46.921Z,25.92
2022-10-22T03:33:35.447Z,25.92
2022-10-22T03:36:23.988Z,25.91
2022-10-22T03:39:14.297Z,25.92
2022-10-22T03:42:03.235Z,25.92
2022-10-22T03:44:51.656Z,25.93
2022-10-22T03:47:41.804Z,25.92
2022-10-22T03:50:30.731Z,25.92
2022-10-22T03:53:19.104Z,25.92
2022-10-22T03:56:10.253Z,25.94
2022-10-22T03:58:59.880Z,25.94
2022-10-22T04:01:48.270Z,25.92
2022-10-22T04:04:38.765Z,25.93
2022-10-22T04:07:27.203Z,25.92
2022-10-22T04:10:15.678Z,25.92
2022-10-22T04:13:04.078Z,25.92
2022-10-22T04:15:52.854Z,25.93
2022-10-22T04:18:42.149Z,25.97
2022-10-22T04:21:33.017Z,25.94
2022-10-22T04:24:23.898Z,25.93
2022-10-22T04:27:12.305Z,25.92
2022-10-22T04:30:00.719Z,25.92
2022-10-22T04:32:49.105Z,25.92
2022-10-22T04:35:40.565Z,25.92
2022-10-22T04:38:30.328Z,25.96
2022-10-22T04:41:20.564Z,25.92
2022-10-22T04:44:13.627Z,25.94
2022-10-22T04:47:05.486Z,25.93
2022-10-22T04:49:53.911Z,25.92
2022-10-22T04:52:42.427Z,25.93
2022-10-22T04:55:32.211Z,25.92
2022-10-22T04:58:20.585Z,25.92
2022-10-22T05:01:13.402Z,25.92
2022-10-22T05:04:03.141Z,25.91
2022-10-22T05:06:52.623Z,25.90
2022-10-22T05:09:41.276Z,25.91
2022-10-22T05:12:31.066Z,25.91
2022-10-22T05:15:19.474Z,25.89
2022-10-22T05:18:07.850Z,25.90
2022-10-22T05:20:56.282Z,25.89
2022-10-22T05:23:44.781Z,25.91
2022-10-22T05:26:33.209Z,25.92
2022-10-22T05:29:23.577Z,25.92
2022-10-22T05:32:12.009Z,25.93
2022-10-22T05:35:00.392Z,25.92
2022-10-22T05:37:48.847Z,25.91
2022-10-22T05:40:37.288Z,25.90
2022-10-22T05:43:25.786Z,25.91
2022-10-22T05:46:21.243Z,25.93
2022-10-22T05:49:14.660Z,25.93
2022-10-22T05:52:03.180Z,25.96
2022-10-22T05:54:51.620Z,25.94
2022-10-22T05:57:41.053Z,25.91
2022-10-22T06:00:29.503Z,25.92
2022-10-22T06:03:19.307Z,25.93
2022-10-22T06:06:17.474Z,25.94
2022-10-22T06:09:08.564Z,25.93
2022-10-22T06:11:57.973Z,25.92
2022-10-22T06:14:46.595Z,25.94
2022-10-22T06:17:36.478Z,25.93
2022-10-22T06:20:26.365Z,25.93
2022-10-22T06:23:15.611Z,25.91
2022-10-22T06:26:04.445Z,25.92
2022-10-22T06:28:52.925Z,25.90
2022-10-22T06:31:41.396Z,25.91
2022-10-22T06:34:29.763Z,25.92
2022-10-22T06:37:19.640Z,25.89
2022-10-22T06:40:09.314Z,25.91
2022-10-22T06:42:57.734Z,25.91
2022-10-22T06:45:46.135Z,25.92
2022-10-22T06:48:35.965Z,25.92
2022-10-22T06:51:24.771Z,25.91
2022-10-22T06:54:14.523Z,25.91
2022-10-22T06:57:02.951Z,25.92
2022-10-22T06:59:51.488Z,25.94
2022-10-22T07:02:40.207Z,25.94
2022-10-22T07:05:28.902Z,25.95
2022-10-22T07:08:17.299Z,25.92
2022-10-22T07:11:11.931Z,25.92
2022-10-22T07:14:01.388Z,25.93
2022-10-22T07:16:49.949Z,25.92
2022-10-22T07:19:38.350Z,25.91
2022-10-22T07:22:26.911Z,25.89
2022-10-22T07:25:15.409Z,25.88
2022-10-22T07:28:06.601Z,25.89
2022-10-22T07:30:57.329Z,25.88
2022-10-22T07:33:45.853Z,25.89
2022-10-22T07:36:34.475Z,25.88
2022-10-22T07:39:23.161Z,25.93
2022-10-22T07:42:14.562Z,25.92
2022-10-22T07:45:04.815Z,25.90
2022-10-22T07:47:53.288Z,25.87
2022-10-22T07:50:41.779Z,25.89
2022-10-22T07:53:30.199Z,25.98
2022-10-22T07:56:18.733Z,25.92
2022-10-22T07:59:07.203Z,25.89
2022-10-22T08:01:56.913Z,25.92
2022-10-22T08:04:45.366Z,25.97
2022-10-22T08:07:33.887Z,25.89
2022-10-22T08:10:22.351Z,25.89
2022-10-22T08:13:10.794Z,25.93
2022-10-22T08:16:00.579Z,26.00
2022-10-22T08:18:51.481Z,25.96
2022-10-22T08:21:39.931Z,25.91
2022-10-22T08:24:28.418Z,25.86
2022-10-22T08:27:16.783Z,25.98
2022-10-22T08:30:06.333Z,25.89
2022-10-22T08:32:55.145Z,25.86
2022-10-22T08:35:49.514Z,25.83
2022-10-22T08:38:37.943Z,25.92
2022-10-22T08:41:26.613Z,25.88
2022-10-22T08:44:31.787Z,25.86
2022-10-22T08:47:32.669Z,25.88
2022-10-22T08:50:28.095Z,25.89
2022-10-22T08:53:20.390Z,25.89
2022-10-22T08:56:08.852Z,25.86
2022-10-22T08:59:01.458Z,25.93
2022-10-22T09:01:51.650Z,25.91
2022-10-22T09:04:45.210Z,25.95
2022-10-22T09:07:36.658Z,25.96
2022-10-22T09:10:31.544Z,25.93
2022-10-22T09:13:22.175Z,25.91
2022-10-22T09:16:17.293Z,25.89
2022-10-22T09:19:14.363Z,25.87
2022-10-22T09:22:09.696Z,25.86
2022-10-22T09:25:01.515Z,25.84
2022-10-22T09:27:52.552Z,25.84
2022-10-22T09:30:41.681Z,25.84
2022-10-22T09:33:33.706Z,25.86
2022-10-22T09:36:24.163Z,25.86
2022-10-22T09:39:27.442Z,25.86
2022-10-22T09:42:18.355Z,25.94
2022-10-22T09:45:08.965Z,25.92
2022-10-22T09:48:11.222Z,26.04
2022-10-22T09:51:04.925Z,26.00
2022-10-22T09:53:58.641Z,26.00
2022-10-22T09:56:55.864Z,26.00
2022-10-22T09:59:45.208Z,26.09
2022-10-22T10:02:38.988Z,26.01
2022-10-22T10:05:29.595Z,25.99
2022-10-22T10:08:18.906Z,25.99
2022-10-22T10:11:12.684Z,25.99
2022-10-22T10:14:09.534Z,26.00
2022-10-22T10:17:00.137Z,26.02
2022-10-22T10:20:01.454Z,26.04
2022-10-22T10:22:56.977Z,26.04
2022-10-22T10:25:51.914Z,26.01
2022-10-22T10:28:49.411Z,26.03
2022-10-22T10:31:45.173Z,26.05
2022-10-22T10:34:42.186Z,26.02
2022-10-22T10:37:35.696Z,26.04
2022-10-22T10:40:36.410Z,26.04
2022-10-22T10:43:31.464Z,26.07
2022-10-22T10:46:25.175Z,26.04
2022-10-22T10:49:19.841Z,26.05
2022-10-22T10:52:18.875Z,26.09
2022-10-22T10:55:21.834Z,26.09
2022-10-22T10:58:22.115Z,26.10
2022-10-22T11:01:17.821Z,26.07
2022-10-22T11:04:26.461Z,26.04
2022-10-22T11:07:33.564Z,26.05
2022-10-22T11:10:29.871Z,26.04
2022-10-22T11:13:24.584Z,26.05
2022-10-22T11:16:18.498Z,26.01
2022-10-22T11:19:11.298Z,26.02
2022-10-22T11:22:05.227Z,26.02
2022-10-22T11:24:57.049Z,25.95
2022-10-22T11:27:50.579Z,25.99
2022-10-22T11:30:39.955Z,25.95
2022-10-22T11:33:32.545Z,26.00
2022-10-22T11:36:23.082Z,25.96
2022-10-22T11:39:30.546Z,25.98
2022-10-22T11:42:21.732Z,25.97
2022-10-22T11:45:30.285Z,26.13
2022-10-22T11:48:20.633Z,25.94
2022-10-22T11:51:31.373Z,25.89
2022-10-22T11:54:32.611Z,25.81
2022-10-22T11:57:24.319Z,25.79
2022-10-22T12:00:41.563Z,25.87
2022-10-22T12:03:41.107Z,25.76
2022-10-22T12:06:30.300Z,25.67
2022-10-22T12:09:20.500Z,25.71
2022-10-22T12:12:16.415Z,25.67
2022-10-22T12:15:23.521Z,25.62
2022-10-22T12:21:02.610Z,25.65
2022-10-22T12:23:52.420Z,25.68
2022-10-22T12:26:43.579Z,25.70
2022-10-22T12:29:33.999Z,25.71
2022-10-22T12:32:22.512Z,25.73
2022-10-22T12:35:17.892Z,25.58
2022-10-22T12:38:12.832Z,25.61
2022-10-22T12:41:01.225Z,25.64
2022-10-22T12:43:49.660Z,25.68
2022-10-22T12:46:38.049Z,25.67
2022-10-22T12:49:29.705Z,25.61
2022-10-22T12:52:22.721Z,25.67
2022-10-22T12:55:17.444Z,25.68
2022-10-22T12:58:07.347Z,25.72
2022-10-22T13:00:58.420Z,25.77
2022-10-22T13:03:49.901Z,25.77
2022-10-22T13:06:38.350Z,25.90
2022-10-22T13:09:30.157Z,25.91
2022-10-22T13:12:26.011Z,25.96
2022-10-22T13:15:23.683Z,25.99
2022-10-22T13:18:21.047Z,25.98
2022-10-22T13:21:24.851Z,25.97
2022-10-22T13:24:22.792Z,25.92
2022-10-22T13:27:12.654Z,25.95
2022-10-22T13:30:05.054Z,25.95
2022-10-22T13:32:55.242Z,26.03
2022-10-22T13:35:43.668Z,26.02
2022-10-22T13:38:32.163Z,25.98
2022-10-22T13:41:22.700Z,25.95
2022-10-22T13:44:12.558Z,25.99
2022-10-22T13:47:00.953Z,25.86
2022-10-22T13:49:49.465Z,25.80
2022-10-22T13:52:41.111Z,25.81
2022-10-22T13:55:31.222Z,25.75
2022-10-22T13:58:21.869Z,25.77
2022-10-22T14:01:20.472Z,25.77
2022-10-22T14:04:12.590Z,25.77
2022-10-22T14:07:03.841Z,25.77
2022-10-22T14:09:52.568Z,25.86
2022-10-22T14:12:41.067Z,26.03
2022-10-22T14:15:30.406Z,26.14
2022-10-22T14:18:25.552Z,26.21
2022-10-22T14:21:15.689Z,26.19
2022-10-22T14:24:06.081Z,26.40
2022-10-22T14:26:56.716Z,26.48
2022-10-22T14:29:45.331Z,26.63
2022-10-22T14:32:33.809Z,26.69
2022-10-22T14:35:24.384Z,26.36
2022-10-22T14:38:12.844Z,26.58
2022-10-22T14:41:03.909Z,26.60
2022-10-22T14:43:54.882Z,26.72
2022-10-22T14:46:44.185Z,26.75
2022-10-22T14:49:33.426Z,26.80
2022-10-22T14:52:23.204Z,26.85
2022-10-22T14:55:12.276Z,26.75
2022-10-22T14:58:02.027Z,26.85
2022-10-22T15:00:50.553Z,26.96
2022-10-22T15:03:39.157Z,27.11
2022-10-22T15:06:27.778Z,27.13
2022-10-22T15:09:17.605Z,27.19
2022-10-22T15:12:06.289Z,27.31
2022-10-22T15:14:54.692Z,27.32
2022-10-22T15:17:43.645Z,27.44
2022-10-22T15:20:32.238Z,27.26
2022-10-22T15:23:20.638Z,26.94
2022-10-22T15:26:11.220Z,26.88
2022-10-22T15:29:00.116Z,26.80
2022-10-22T15:31:51.531Z,26.94
2022-10-22T15:34:41.177Z,27.04
2022-10-22T15:37:30.794Z,27.08
2022-10-22T15:40:19.370Z,26.99
2022-10-22T15:43:09.298Z,27.04
2022-10-22T15:46:11.904Z,27.13
2022-10-22T15:49:00.367Z,27.06
2022-10-22T15:51:49.337Z,27.16
2022-10-22T15:54:37.898Z,27.09
2022-10-22T15:57:26.789Z,27.16
2022-10-22T16:00:17.386Z,27.13
2022-10-22T16:03:05.876Z,27.19
2022-10-22T16:05:54.566Z,27.14
2022-10-22T16:08:43.014Z,27.07
2022-10-22T16:11:32.344Z,27.23
2022-10-22T16:14:23.244Z,27.12
2022-10-22T16:17:14.237Z,27.22
2022-10-22T16:20:02.728Z,27.29
2022-10-22T16:22:51.619Z,27.36
2022-10-22T16:25:40.294Z,27.09
2022-10-22T16:28:29.967Z,26.77
2022-10-22T16:31:19.901Z,26.60
2022-10-22T16:34:09.969Z,26.87
2022-10-22T16:36:58.493Z,27.10
2022-10-22T16:39:47.722Z,27.05
2022-10-22T16:42:36.533Z,27.25
2022-10-22T16:45:25.010Z,27.29
2022-10-22T16:48:13.431Z,27.53
2022-10-22T16:51:07.611Z,27.30
2022-10-22T16:53:57.279Z,26.99
2022-10-22T16:56:45.941Z,26.77
2022-10-22T16:59:37.721Z,26.74
2022-10-22T17:02:26.390Z,26.69
2022-10-22T17:05:14.795Z,26.76
2022-10-22T17:08:04.605Z,26.74
2022-10-22T17:10:55.919Z,26.74
2022-10-22T17:13:44.885Z,26.82
2022-10-22T17:16:33.370Z,26.94
2022-10-22T17:19:22.713Z,26.94
2022-10-22T17:22:14.806Z,27.01
2022-10-22T17:25:15.723Z,27.01
2022-10-22T17:28:04.159Z,26.98
2022-10-22T17:30:52.783Z,27.19
2022-10-22T17:33:41.193Z,27.38
2022-10-22T17:36:33.243Z,27.44
2022-10-22T17:39:24.199Z,27.46
2022-10-22T17:42:14.190Z,27.49
2022-10-22T17:45:02.718Z,27.44
2022-10-22T17:47:52.049Z,27.36
2022-10-22T17:50:45.734Z,27.29
2022-10-22T17:53:35.482Z,27.25
2022-10-22T17:56:28.013Z,27.18
2022-10-22T17:59:19.042Z,27.13
2022-10-22T18:02:07.475Z,27.07
2022-10-22T18:04:55.964Z,27.07
2022-10-22T18:07:44.391Z,26.94
2022-10-22T18:10:32.991Z,26.89
2022-10-22T18:13:21.757Z,26.74
2022-10-22T18:16:15.510Z,26.68
2022-10-22T18:19:04.278Z,26.67
2022-10-22T18:21:52.909Z,26.72
2022-10-22T18:24:41.479Z,26.72
2022-10-22T18:27:29.969Z,26.77
2022-10-22T18:30:18.428Z,26.78
2022-10-22T18:33:08.275Z,26.80
2022-10-22T18:35:56.930Z,26.81
2022-10-22T18:38:45.395Z,26.86
2022-10-22T18:41:35.876Z,26.92
2022-10-22T18:44:24.801Z,26.87
2022-10-22T18:47:13.226Z,26.83
2022-10-22T18:50:03.278Z,26.87
2022-10-22T18:52:51.746Z,26.89
2022-10-22T18:55:41.753Z,26.91
2022-10-22T18:58:30.168Z,26.92
2022-10-22T19:01:20.472Z,26.96
2022-10-22T19:04:08.957Z,26.97
2022-10-22T19:06:59.579Z,26.99
2022-10-22T19:09:48.045Z,27.02
2022-10-22T19:12:37.110Z,27.05
2022-10-22T19:15:25.569Z,27.04
2022-10-22T19:18:17.303Z,27.07
2022-10-22T19:21:06.622Z,27.07
2022-10-22T19:23:58.050Z,27.09
2022-10-22T19:26:48.005Z,27.10
2022-10-22T19:29:36.588Z,27.07
2022-10-22T19:32:27.503Z,27.08
2022-10-22T19:35:19.671Z,27.09
2022-10-22T19:38:08.092Z,27.08
2022-10-22T19:40:57.984Z,27.11
2022-10-22T19:43:49.545Z,27.09
2022-10-22T19:46:38.129Z,27.11
2022-10-22T19:49:26.952Z,27.10
2022-10-22T19:52:15.594Z,26.89
2022-10-22T19:55:04.273Z,26.69
2022-10-22T19:57:54.113Z,26.65
2022-10-22T20:00:42.709Z,26.66
2022-10-22T20:03:31.259Z,26.76
2022-10-22T20:06:21.727Z,26.68
2022-10-22T20:09:11.031Z,26.68
2022-10-22T20:11:59.516Z,26.61
2022-10-22T20:14:49.299Z,26.62
2022-10-22T20:17:41.047Z,26.64
2022-10-22T20:20:29.638Z,26.70
2022-10-22T20:23:18.215Z,26.66
2022-10-22T20:26:08.796Z,26.78
2022-10-22T20:28:57.801Z,26.78
2022-10-22T20:31:47.989Z,26.69
2022-10-22T20:34:36.821Z,26.73
2022-10-22T20:37:25.177Z,26.71
2022-10-22T20:40:14.607Z,26.59
2022-10-22T20:43:03.268Z,26.64
2022-10-22T20:45:51.696Z,26.77
2022-10-22T20:48:41.451Z,26.95
2022-10-22T20:51:29.945Z,26.96
2022-10-22T20:54:21.445Z,26.98
2022-10-22T20:57:10.071Z,26.97
2022-10-22T20:59:58.937Z,27.04
2022-10-22T21:02:47.313Z,26.96
2022-10-22T21:05:40.035Z,27.12
2022-10-22T21:08:28.463Z,27.11
2022-10-22T21:11:17.087Z,26.92
2022-10-22T21:14:06.109Z,26.85
2022-10-22T21:16:54.497Z,26.82
2022-10-22T21:19:43.194Z,26.80
2022-10-22T21:22:33.048Z,26.74
2022-10-22T21:25:21.574Z,27.10
2022-10-22T21:28:10.002Z,27.16
2022-10-22T21:30:58.430Z,27.04
2022-10-22T21:33:46.890Z,27.06
2022-10-22T21:36:36.839Z,27.07
2022-10-22T21:39:26.718Z,26.95
2022-10-22T21:42:19.975Z,26.80
2022-10-22T21:45:12.418Z,26.72
2022-10-22T21:48:03.278Z,26.70
2022-10-22T21:50:51.682Z,26.70
2022-10-22T21:53:40.269Z,26.69
2022-10-22T21:56:33.403Z,26.72
2022-10-22T21:59:21.906Z,26.82
2022-10-22T22:02:10.833Z,26.66
2022-10-22T22:04:59.301Z,26.67
2022-10-22T22:07:47.903Z,26.68
2022-10-22T22:10:36.526Z,26.74
2022-10-22T22:13:27.100Z,26.80
2022-10-22T22:16:17.296Z,26.80
2022-10-22T22:19:08.467Z,27.10
2022-10-22T22:21:58.269Z,27.07
2022-10-22T22:24:47.170Z,27.14
2022-10-22T22:27:39.817Z,27.16
2022-10-22T22:30:31.009Z,27.17
2022-10-22T22:33:19.459Z,27.19
2022-10-22T22:36:08.446Z,27.19
2022-10-22T22:38:57.198Z,27.23
2022-10-22T22:41:46.222Z,27.21
2022-10-22T22:44:34.732Z,27.17
2022-10-22T22:47:24.622Z,27.11
2022-10-22T22:50:13.177Z,27.06
2022-10-22T22:53:01.621Z,27.03
2022-10-22T22:55:50.264Z,27.00
2022-10-22T22:58:40.422Z,27.03
2022-10-22T23:01:30.268Z,27.00
2022-10-22T23:04:23.633Z,26.94
2022-10-22T23:07:12.200Z,26.95
2022-10-22T23:10:00.665Z,26.91
2022-10-22T23:12:49.063Z,26.92
2022-10-22T23:15:41.146Z,26.89
2022-10-22T23:18:29.547Z,26.91
2022-10-22T23:21:20.577Z,26.90
2022-10-22T23:24:10.393Z,26.88
2022-10-22T23:27:01.916Z,26.82
2022-10-22T23:29:50.376Z,26.87
2022-10-22T23:32:38.817Z,26.79
2022-10-22T23:35:27.263Z,26.79
2022-10-22T23:38:17.091Z,26.79
2022-10-22T23:41:06.185Z,26.76
2022-10-22T23:43:54.753Z,26.73
2022-10-22T23:46:43.499Z,26.70
2022-10-22T23:49:31.938Z,26.73
2022-10-22T23:52:20.392Z,26.75
2022-10-22T23:55:10.842Z,26.74
2022-10-22T23:57:59.304Z,26.74
